Terminal Aerodrome Forecast
Issued by NWS

Home | Current Version | Previous Version | Text Only | Print | Product List | Glossary On
Versions: 1 2 3 4 5 6 7 8 9 10 11 12 13 14
000
FTUS42 TJSJ 062300
TAFNCM
TAF
TNCM 062340Z 0700/0724 07009KT P6SM FEW023
     FM071300 09014G22KT P6SM FEW022
     FM072300 09015KT P6SM FEW018 FEW025=

USA.gov is the U.S. government's official web portal to all federal, state and local government web resources and services.